• Join FlightAware (Why Join?)
  • Login
  • US Flag 
Gobble Gobble! 
01:43AM EST


 

Airport Tracker/Info


-or-


 

Live Flight TrackerFlight Track Log ✈ EJA646 ✈ 24-May-2013 ✈ KSDF - KMMU

Flight Track Log - Related Links

Times and Time Zones

All times are in EDT time to prevent confusion due to time zone crossing. See the EJA646 flight status page for this flight to view local times or setup timezone preferences in your user account.

Time Position Orientation Groundspeed Altitude Reporting Facility
EDT Latitude Longitude Course Direction KTS MPH feet Rate Location/Type
01:38PM 38.2317 -85.7733 101° East 254 292 4,800  Level Indianapolis Center
01:39PM 38.2967 -85.7722 North 239 275 9,400 3,480 Climbing Indianapolis Center
01:40PM 38.3111 -85.6794 79° East 291 335 12,100 2,580 Climbing Indianapolis Center
01:41PM 38.2453 -85.5972 136° Southeast 330 380 14,800 2,580 Climbing Indianapolis Center
01:42PM 38.1672 -85.5158 70° East 356 410 17,500 2,400 Climbing Indianapolis Center
01:43PM 38.2859 -85.4546 70° East  Level Estimated
01:43PM 38.0944 -85.4206 134° Southeast 375 432 19,800  Level Indianapolis Center
01:44PM 38.0303 -84.9960 101° East  Level FlightAware Approximate
01:44PM 38.0731 -85.2925 102° East 372 428 21,700  Level Indianapolis Center
01:46PM 38.0511 -85.1311 100° East 397 457 23,800 1,860 Climbing Indianapolis Center
01:47PM 38.0333 -84.9881 99° East 408 470 25,600 1,740 Climbing Indianapolis Center
01:48PM 38.0139 -84.8425 100° East 415 478 27,400 1,740 Climbing Indianapolis Center
01:49PM 37.9944 -84.6964 100° East 419 482 29,200 1,560 Climbing Indianapolis Center
01:50PM 37.9758 -84.5494 99° East 420 483 30,700 1,560 Climbing Indianapolis Center
01:51PM 37.9631 -84.3750 95° East 426 490 32,500 1,380 Climbing Indianapolis Center
01:52PM 37.9561 -84.2250 93° East 426 490 33,600 960 Climbing Indianapolis Center
01:53PM 37.9492 -84.0717 93° East 433 498 34,600 960 Climbing Indianapolis Center
01:54PM 37.9419 -83.9153 93° East 442 509 35,700 960 Climbing Indianapolis Center
01:55PM 37.9356 -83.7578 93° East 445 512 36,600 780 Climbing Indianapolis Center
01:56PM 37.9281 -83.5994 93° East 447 514 37,400 780 Climbing Indianapolis Center
01:57PM 37.9183 -83.4172 94° East 444 511 38,300 780 Climbing Indianapolis Center
01:58PM 37.9203 -83.2611 89° East 442 509 39,100 720 Climbing Indianapolis Center
01:59PM 37.9261 -83.1053 87° East 440 506 39,900 720 Climbing Indianapolis Center
02:00PM 37.9319 -82.9547 87° East 429 494 40,600 480 Climbing Indianapolis Center
02:01PM 37.9375 -82.8042 87° East 427 491 41,000 180 Climbing Indianapolis Center
02:02PM 37.9439 -82.6531 87° East 428 493 41,000  Level Indianapolis Center
02:03PM 37.9497 -82.4711 88° East 438 504 41,000  Level Indianapolis Center
02:04PM 37.9547 -82.3142 88° East 444 511 41,000  Level Indianapolis Center
02:05PM 37.9594 -82.1553 88° East 448 516 41,000  Level Indianapolis Center
02:06PM 37.9656 -81.9869 87° East 453 521 41,000  Level Indianapolis Center
02:07PM 37.9694 -81.8278 88° East 455 524 41,000  Level Indianapolis Center
02:08PM 37.9736 -81.6697 88° East 452 520 41,000  Level Indianapolis Center
02:09PM 37.9781 -81.5158 88° East 444 511 41,000  Level Indianapolis Center
02:10PM 37.9808 -81.3606 89° East 443 510 41,000  Level Indianapolis Center
02:11PM 37.9842 -81.2050 88° East 443 510 41,000  Level Indianapolis Center
02:12PM 37.9886 -81.0181 88° East 444 511 41,000  Level Indianapolis Center
02:13PM 37.9919 -80.8619 88° East 445 512 41,000  Level Indianapolis Center
02:14PM 37.9942 -80.7056 89° East 446 513 41,000  Level Indianapolis Center
02:15PM 37.9972 -80.5500 89° East 444 511 41,000  Level Indianapolis Center
02:16PM 37.9986 -80.4800 89° East 437 503 41,000  Level Washington Center
02:17PM 38.0014 -80.3089 89° East 445 512 41,000  Level Washington Center
02:18PM 38.0053 -80.1536 88° East 440 506 41,000  Level Washington Center
02:19PM 38.0069 -79.9983 89° East 440 506 41,000  Level Washington Center
02:20PM 38.0083 -79.8403 89° East 440 506 41,000  Level Washington Center
02:21PM 38.0111 -79.6981 89° East 440 506 41,000  Level Washington Center
02:22PM 38.0122 -79.5425 89° East 440 506 41,000 -60 Level Washington Center
02:23PM 37.9817 -79.3908 104° East 440 506 40,900 -480 Descending Washington Center
02:24PM 37.9406 -79.2439 109° East 436 502 40,100 -480 Descending Washington Center
02:25PM 37.9031 -79.0972 108° East 442 509 40,000 -60 Descending Washington Center
02:26PM 37.8675 -78.9589 108° East 436 502 40,000  Level Washington Center
02:27PM 37.8300 -78.8047 107° East 418 481 40,000  Level Washington Center
02:28PM 37.7919 -78.6586 108° East 418 481 40,000  Level Washington Center
02:29PM 37.7539 -78.5125 108° East 428 493 40,000  Level Washington Center
02:30PM 37.7367 -78.3594 98° East 434 499 40,000  Level Washington Center
02:31PM 37.7939 -78.2356 60° Northeast 424 488 40,000  Level Washington Center
02:32PM 37.9056 -78.1814 21° North 369 425 40,000  Level Washington Center
02:33PM 38.0314 -78.1436 13° North 380 437 40,000  Level Washington Center
02:34PM 38.1333 -78.0575 34° Northeast 433 498 40,000  Level Washington Center
02:35PM 38.1717 -77.9133 71° East 411 473 40,000  Level Washington Center
02:36PM 38.1578 -77.7678 97° East 375 432 40,000  Level Washington Center
02:37PM 38.1456 -77.6328 97° East 375 432 40,000  Level Washington Center
02:38PM 38.1308 -77.5003 98° East 380 437 40,000  Level Washington Center
02:39PM 38.1225 -77.3733 95° East 375 432 40,000  Level Washington Center
02:40PM 38.1139 -77.2411 95° East 369 425 40,000  Level Washington Center
02:41PM 38.1939 -77.1794 31° Northeast 288 331 40,000 -900 Level Washington Center
02:42PM 38.2958 -77.2161 344° North 288 331 38,200 -2,040 Descending Washington Center
02:43PM 38.4164 -77.2400 351° North 349 402 35,900 -2,400 Descending Washington Center
02:44PM 38.5322 -77.1575 29° Northeast 419 482 33,500 -2,400 Descending Washington Center
02:45PM 38.6253 -77.0400 45° Northeast 439 505 31,200 -2,220 Descending Washington Center
02:46PM 38.7225 -76.9275 42° Northeast 444 511 29,100 -2,040 Descending Washington Center
02:47PM 38.8239 -76.8014 44° Northeast 475 547 27,100 -2,040 Descending Washington Center
02:48PM 38.9250 -76.6775 44° Northeast 487 560 25,100 -1,620 Descending Washington Center
02:49PM 39.0219 -76.5561 44° Northeast 493 567 24,000 -600 Descending Washington Center
02:50PM 39.1189 -76.4397 43° Northeast 481 554 24,000  Level Washington Center
02:51PM 39.2156 -76.3203 44° Northeast 476 548 24,000  Level Washington Center
02:52PM 39.3142 -76.1978 44° Northeast 476 548 24,000 -600 Level Washington Center
02:53PM 39.4042 -76.0911 42° Northeast 489 563 22,800 -2,040 Descending Washington Center
02:54PM 39.4942 -75.9789 44° Northeast 468 539 19,900 -2,760 Descending Washington Center
02:55PM 39.5800 -75.8717 44° Northeast 444 511 17,300 -2,340 Descending Washington Center
02:57PM 39.7500 -75.6667 43° Northeast 383 441 13,100 -1,620 Descending Philadelphia TRACON
02:58PM 39.8167 -75.5833 44° Northeast 391 450 13,000 -60 Descending Philadelphia TRACON
02:59PM 39.9000 -75.5000 37° Northeast 387 445 13,000  Level Philadelphia TRACON
03:00PM 39.9833 -75.4333 32° Northeast 382 440 13,000  Level Philadelphia TRACON
03:01PM 40.0667 -75.3500 37° Northeast 390 449 13,000 -60 Level Philadelphia TRACON
03:02PM 40.1667 -75.2500 37° Northeast 389 448 12,900 -960 Descending Philadelphia TRACON
03:03PM 40.2500 -75.1667 37° Northeast 320 368 10,900 -1,860 Descending Philadelphia TRACON
03:04PM 40.3500 -75.0667 37° Northeast 313 360 8,300 -1,620 Descending New York TRACON
03:05PM 40.4167 -74.9833 44° Northeast 298 343 7,000 -960 Descending New York TRACON
03:06PM 40.4667 -74.9167 45° Northeast 257 296 6,400 -900 Descending New York TRACON
03:07PM 40.5167 -74.8667 37° Northeast 246 283 5,200 -1,200 Descending New York TRACON
03:08PM 40.5667 -74.8500 14° North 237 273 4,000 -660 Descending New York TRACON
03:09PM 40.6167 -74.8000 37° Northeast 209 241 3,900 -840 Descending New York TRACON
03:10PM 40.6500 -74.7500 49° Northeast 209 241 2,400 -1,020 Descending New York TRACON
03:11PM 40.6667 -74.6833 72° East 200 230 1,900 -240 Descending New York TRACON
03:12PM 40.6500 -74.6000 105° East 188 216 2,000 -60 Climbing New York TRACON
03:13PM 40.6500 -74.5500 90° East 165 190 1,800 -180 Descending New York TRACON
03:14PM 40.6833 -74.5167 37° Northeast 155 178 1,700  Descending New York TRACON
03:15PM 40.7167 -74.4833 37° Northeast 153 176 1,800 -240 Climbing New York TRACON
03:16PM 40.7500 -74.4667 21° North 133 153 1,300 -660 Descending New York TRACON
03:17PM 40.7833 -74.4333 37° Northeast 122 140 500 -780 Descending New York TRACON
03:19PM 40.7833 -74.4000 62° Northeast  Level FlightAware Approximate
03:26PM 40.7993 -74.4149 62° Northeast  Level Estimated
03:27PM 40.7993 -74.4149 62° Northeast  Level Estimated